Salt Lake City International Airport
KSLC : now visible

Airfield :











YOU CAN JOIN US ON...

 
LOGIN :

Register | Disclaimer

   EN    FR    IT 

 









Legend :    VFR   Marginal VFR   IFR   Intensive IFR   Very Intensive IFR
Visi :
Ceiling :
>= 8 km
>= 3000ft
5 to 8 km
1000 to 3000 ft
1500m to 5 km
500 to 1000 ft
800 to 1500m
200 to 500 ft
< 800m
< 200 ft
Symbols :   Thunderstorms  Fog  Heavy snow  Heavy precipitations  Wind > 20 kt






- Airport Elevation : 4227 ft
- IATA code : SLC


KSLC - Salt Lake City International

CURRENT METAR :
  • 291813Z 33009KT 1 1/2SM R16L/4000VP6000FT -SN BR BKN007 OVC012 01/M01 A2983 RMK AO2 VIS 3/4 NW RNWY P0001 T00061011 $

EXPIRED METARs :
  • 291754Z 34005KT 1SM R16L/5500VP6000FT -SN BR FEW005 BKN010 OVC022 01/M01 A2983 RMK AO2 SFC VIS 1 1/2 SLP104 P0001 60001 T00061011 10011 20000 51015 $
  • 291749Z 32005KT 2SM -SN BR FEW005 BKN010 OVC022 01/M01 A2983 RMK AO2 P0001 $
  • 291726Z 34004KT 1 1/4SM R16L/6000VP6000FT -SN BR FEW010 BKN027 OVC037 01/M01 A2982 RMK AO2 TWR VIS 2 P0000 T00111011 $
  • 291654Z 01006KT 2SM -SN BR SCT026 OVC033 01/M01 A2982 RMK AO2 SFC VIS 3 SLP100 P0000 T00061006 $
  • 291554Z 36009KT 2SM -SN BR SCT030 BKN040 OVC055 01/M02 A2981 RMK AO2 SNB34 SLP097 P0000 T00061017 $

TAF KSLC
Valid from the 29 at 18:00 until the 31 at 00:00 UTC


291807Z 2918/3024 34010KT 2SM -SN BKN015 OVC020
TEMPO 2918/2920 1SM -SN BKN005
FM292200 34012KT 5SM BR VCSH BKN015 OVC025
FM300200 33006KT P6SM SCT015 OVC040
FM300800 33006KT P6SM FEW050 SCT100
KZLC FIR / North America



MET'MAP, your aeronautical weather chart ! - Copyright ORBIFLY December 2007 - Disclaimer

ORBIFLY MET'MAP TEAM :

Programming & Development : Alexandra Zaïnal
Original concept : Baudouin d'Aumeries
Technical & hardware support : Manuel Goepfert
Assistance : Marc-Olivier Méhu




SOURCES & CREDITS :

   NOAA       Earth
Advisory